sensor_id;sensor_type;location;lat;lon;timestamp;P1;durP1;ratioP1;P2;durP2;ratioP2
7917;SDS011;4004;42.624;23.386;2023-03-14T00:01:26;8.03;;;6.13;;
7917;SDS011;4004;42.624;23.386;2023-03-14T00:03:52;7.80;;;6.00;;
7917;SDS011;4004;42.624;23.386;2023-03-14T00:06:19;7.23;;;5.70;;
7917;SDS011;4004;42.624;23.386;2023-03-14T00:08:47;7.23;;;5.37;;
7917;SDS011;4004;42.624;23.386;2023-03-14T00:11:14;4.77;;;4.20;;
7917;SDS011;4004;42.624;23.386;2023-03-14T00:13:44;5.23;;;4.03;;
7917;SDS011;4004;42.624;23.386;2023-03-14T00:16:14;6.67;;;4.23;;
7917;SDS011;4004;42.624;23.386;2023-03-14T00:18:40;6.57;;;4.87;;
7917;SDS011;4004;42.624;23.386;2023-03-14T00:21:08;7.27;;;4.37;;
7917;SDS011;4004;42.624;23.386;2023-03-14T00:23:36;5.50;;;4.47;;
7917;SDS011;4004;42.624;23.386;2023-03-14T00:26:05;6.93;;;4.70;;
7917;SDS011;4004;42.624;23.386;2023-03-14T00:28:34;5.23;;;4.27;;
7917;SDS011;4004;42.624;23.386;2023-03-14T00:31:04;5.50;;;4.47;;
7917;SDS011;4004;42.624;23.386;2023-03-14T00:33:31;5.93;;;4.80;;
7917;SDS011;4004;42.624;23.386;2023-03-14T00:35:59;8.17;;;4.77;;
7917;SDS011;4004;42.624;23.386;2023-03-14T00:38:26;7.23;;;5.10;;
7917;SDS011;4004;42.624;23.386;2023-03-14T00:40:54;5.73;;;5.13;;
7917;SDS011;4004;42.624;23.386;2023-03-14T00:43:21;5.87;;;4.83;;
7917;SDS011;4004;42.624;23.386;2023-03-14T00:45:48;7.90;;;5.10;;
7917;SDS011;4004;42.624;23.386;2023-03-14T00:48:16;6.90;;;5.57;;
7917;SDS011;4004;42.624;23.386;2023-03-14T00:50:43;5.60;;;4.83;;
7917;SDS011;4004;42.624;23.386;2023-03-14T00:53:10;6.07;;;4.77;;
7917;SDS011;4004;42.624;23.386;2023-03-14T00:55:37;7.20;;;4.40;;
7917;SDS011;4004;42.624;23.386;2023-03-14T00:58:04;6.83;;;5.03;;
7917;SDS011;4004;42.624;23.386;2023-03-14T01:00:32;6.33;;;4.37;;
7917;SDS011;4004;42.624;23.386;2023-03-14T01:02:59;5.60;;;4.57;;
7917;SDS011;4004;42.624;23.386;2023-03-14T01:05:28;12.20;;;4.73;;
7917;SDS011;4004;42.624;23.386;2023-03-14T01:07:55;5.13;;;4.63;;
7917;SDS011;4004;42.624;23.386;2023-03-14T01:10:22;7.27;;;4.90;;
7917;SDS011;4004;42.624;23.386;2023-03-14T01:12:49;8.17;;;4.30;;
7917;SDS011;4004;42.624;23.386;2023-03-14T01:15:15;7.63;;;4.60;;
7917;SDS011;4004;42.624;23.386;2023-03-14T01:17:42;7.00;;;4.87;;
7917;SDS011;4004;42.624;23.386;2023-03-14T01:20:10;4.60;;;4.20;;
7917;SDS011;4004;42.624;23.386;2023-03-14T01:22:40;4.90;;;4.17;;
7917;SDS011;4004;42.624;23.386;2023-03-14T01:25:09;10.37;;;4.30;;
7917;SDS011;4004;42.624;23.386;2023-03-14T01:27:37;5.73;;;4.40;;
7917;SDS011;4004;42.624;23.386;2023-03-14T01:30:04;5.57;;;4.70;;
7917;SDS011;4004;42.624;23.386;2023-03-14T01:32:33;7.20;;;5.70;;
7917;SDS011;4004;42.624;23.386;2023-03-14T01:35:00;10.50;;;5.30;;
7917;SDS011;4004;42.624;23.386;2023-03-14T01:37:26;8.23;;;5.23;;
7917;SDS011;4004;42.624;23.386;2023-03-14T01:39:54;7.10;;;5.30;;
7917;SDS011;4004;42.624;23.386;2023-03-14T01:42:21;9.07;;;5.50;;
7917;SDS011;4004;42.624;23.386;2023-03-14T01:44:49;9.00;;;5.10;;
7917;SDS011;4004;42.624;23.386;2023-03-14T01:47:17;5.53;;;4.60;;
7917;SDS011;4004;42.624;23.386;2023-03-14T01:49:44;7.83;;;5.10;;
7917;SDS011;4004;42.624;23.386;2023-03-14T01:52:13;7.13;;;5.07;;
7917;SDS011;4004;42.624;23.386;2023-03-14T01:54:43;8.30;;;5.47;;
7917;SDS011;4004;42.624;23.386;2023-03-14T01:57:14;11.60;;;6.57;;
7917;SDS011;4004;42.624;23.386;2023-03-14T01:59:46;11.33;;;6.53;;
7917;SDS011;4004;42.624;23.386;2023-03-14T02:02:16;11.07;;;7.40;;
7917;SDS011;4004;42.624;23.386;2023-03-14T02:04:43;14.00;;;8.23;;
7917;SDS011;4004;42.624;23.386;2023-03-14T02:07:11;14.00;;;8.13;;
7917;SDS011;4004;42.624;23.386;2023-03-14T02:09:41;17.77;;;8.60;;
7917;SDS011;4004;42.624;23.386;2023-03-14T02:12:09;15.00;;;8.80;;
7917;SDS011;4004;42.624;23.386;2023-03-14T02:14:39;13.43;;;8.80;;
7917;SDS011;4004;42.624;23.386;2023-03-14T02:17:07;13.33;;;8.83;;
7917;SDS011;4004;42.624;23.386;2023-03-14T02:19:36;14.03;;;8.90;;
7917;SDS011;4004;42.624;23.386;2023-03-14T02:22:15;14.47;;;9.67;;
7917;SDS011;4004;42.624;23.386;2023-03-14T02:24:43;14.13;;;10.07;;
7917;SDS011;4004;42.624;23.386;2023-03-14T02:27:16;15.77;;;9.53;;
7917;SDS011;4004;42.624;23.386;2023-03-14T02:29:45;14.47;;;8.80;;
7917;SDS011;4004;42.624;23.386;2023-03-14T02:32:17;10.50;;;7.07;;
7917;SDS011;4004;42.624;23.386;2023-03-14T02:34:47;11.53;;;7.00;;
7917;SDS011;4004;42.624;23.386;2023-03-14T02:37:17;12.07;;;6.40;;
7917;SDS011;4004;42.624;23.386;2023-03-14T02:39:46;9.90;;;6.00;;
7917;SDS011;4004;42.624;23.386;2023-03-14T02:42:15;7.27;;;5.50;;
7917;SDS011;4004;42.624;23.386;2023-03-14T02:44:51;7.73;;;5.27;;
7917;SDS011;4004;42.624;23.386;2023-03-14T02:47:20;10.13;;;5.87;;
7917;SDS011;4004;42.624;23.386;2023-03-14T02:49:51;10.60;;;5.97;;
7917;SDS011;4004;42.624;23.386;2023-03-14T02:52:22;6.60;;;4.90;;
7917;SDS011;4004;42.624;23.386;2023-03-14T02:54:48;7.57;;;4.60;;
7917;SDS011;4004;42.624;23.386;2023-03-14T02:57:16;8.43;;;5.20;;
7917;SDS011;4004;42.624;23.386;2023-03-14T02:59:43;8.27;;;5.53;;
7917;SDS011;4004;42.624;23.386;2023-03-14T03:02:10;7.80;;;5.07;;
7917;SDS011;4004;42.624;23.386;2023-03-14T03:04:36;10.00;;;5.70;;
7917;SDS011;4004;42.624;23.386;2023-03-14T03:07:03;7.23;;;5.50;;
7917;SDS011;4004;42.624;23.386;2023-03-14T03:09:30;13.23;;;6.73;;
7917;SDS011;4004;42.624;23.386;2023-03-14T03:11:57;10.33;;;7.13;;
7917;SDS011;4004;42.624;23.386;2023-03-14T03:14:25;13.43;;;8.53;;
7917;SDS011;4004;42.624;23.386;2023-03-14T03:16:52;17.10;;;8.60;;
7917;SDS011;4004;42.624;23.386;2023-03-14T03:19:18;12.60;;;8.93;;
7917;SDS011;4004;42.624;23.386;2023-03-14T03:21:45;14.67;;;9.37;;
7917;SDS011;4004;42.624;23.386;2023-03-14T03:24:13;11.07;;;8.10;;
7917;SDS011;4004;42.624;23.386;2023-03-14T03:26:40;15.87;;;9.40;;
7917;SDS011;4004;42.624;23.386;2023-03-14T03:29:06;17.30;;;9.50;;
7917;SDS011;4004;42.624;23.386;2023-03-14T03:31:36;13.67;;;8.73;;
7917;SDS011;4004;42.624;23.386;2023-03-14T03:34:03;10.80;;;8.47;;
7917;SDS011;4004;42.624;23.386;2023-03-14T03:36:29;14.73;;;8.60;;
7917;SDS011;4004;42.624;23.386;2023-03-14T03:38:57;12.00;;;8.80;;
7917;SDS011;4004;42.624;23.386;2023-03-14T03:41:24;12.03;;;8.27;;
7917;SDS011;4004;42.624;23.386;2023-03-14T03:43:50;9.70;;;7.50;;
7917;SDS011;4004;42.624;23.386;2023-03-14T03:46:19;10.37;;;7.80;;
7917;SDS011;4004;42.624;23.386;2023-03-14T03:48:47;9.33;;;7.53;;
7917;SDS011;4004;42.624;23.386;2023-03-14T03:51:14;11.97;;;7.37;;
7917;SDS011;4004;42.624;23.386;2023-03-14T03:53:42;9.83;;;7.47;;
7917;SDS011;4004;42.624;23.386;2023-03-14T03:56:09;11.67;;;7.37;;
7917;SDS011;4004;42.624;23.386;2023-03-14T03:58:36;10.40;;;8.10;;
7917;SDS011;4004;42.624;23.386;2023-03-14T04:01:04;13.20;;;8.27;;
7917;SDS011;4004;42.624;23.386;2023-03-14T04:03:31;11.13;;;8.20;;
7917;SDS011;4004;42.624;23.386;2023-03-14T04:06:00;12.47;;;8.83;;
7917;SDS011;4004;42.624;23.386;2023-03-14T04:08:27;11.73;;;8.77;;
7917;SDS011;4004;42.624;23.386;2023-03-14T04:10:55;12.37;;;9.27;;
7917;SDS011;4004;42.624;23.386;2023-03-14T04:13:23;13.30;;;9.03;;
7917;SDS011;4004;42.624;23.386;2023-03-14T04:15:50;13.83;;;9.30;;
7917;SDS011;4004;42.624;23.386;2023-03-14T04:18:17;15.90;;;8.63;;
7917;SDS011;4004;42.624;23.386;2023-03-14T04:20:43;12.80;;;8.93;;
7917;SDS011;4004;42.624;23.386;2023-03-14T04:23:11;12.43;;;8.90;;
7917;SDS011;4004;42.624;23.386;2023-03-14T04:25:38;8.87;;;6.77;;
7917;SDS011;4004;42.624;23.386;2023-03-14T04:28:05;8.23;;;6.40;;
7917;SDS011;4004;42.624;23.386;2023-03-14T04:30:32;8.87;;;6.40;;
7917;SDS011;4004;42.624;23.386;2023-03-14T04:32:58;11.10;;;6.93;;
7917;SDS011;4004;42.624;23.386;2023-03-14T04:35:25;9.03;;;6.20;;
7917;SDS011;4004;42.624;23.386;2023-03-14T04:37:52;11.73;;;7.43;;
7917;SDS011;4004;42.624;23.386;2023-03-14T04:40:20;12.07;;;7.33;;
7917;SDS011;4004;42.624;23.386;2023-03-14T04:42:46;14.53;;;7.30;;
7917;SDS011;4004;42.624;23.386;2023-03-14T04:45:13;10.47;;;8.03;;
7917;SDS011;4004;42.624;23.386;2023-03-14T04:47:40;15.63;;;7.00;;
7917;SDS011;4004;42.624;23.386;2023-03-14T04:50:07;6.90;;;5.40;;
7917;SDS011;4004;42.624;23.386;2023-03-14T04:52:34;6.37;;;4.80;;
7917;SDS011;4004;42.624;23.386;2023-03-14T04:55:01;6.90;;;5.50;;
7917;SDS011;4004;42.624;23.386;2023-03-14T04:57:30;8.77;;;5.50;;
7917;SDS011;4004;42.624;23.386;2023-03-14T04:59:56;15.87;;;6.83;;
7917;SDS011;4004;42.624;23.386;2023-03-14T05:02:23;8.50;;;6.13;;
7917;SDS011;4004;42.624;23.386;2023-03-14T05:04:50;10.63;;;5.73;;
7917;SDS011;4004;42.624;23.386;2023-03-14T05:07:17;8.87;;;5.90;;
7917;SDS011;4004;42.624;23.386;2023-03-14T05:09:43;8.93;;;5.03;;
7917;SDS011;4004;42.624;23.386;2023-03-14T05:12:10;8.87;;;5.77;;
7917;SDS011;4004;42.624;23.386;2023-03-14T05:14:38;10.73;;;5.30;;
7917;SDS011;4004;42.624;23.386;2023-03-14T05:17:05;60.53;;;39.17;;
7917;SDS011;4004;42.624;23.386;2023-03-14T05:19:32;24.13;;;15.67;;
7917;SDS011;4004;42.624;23.386;2023-03-14T05:21:58;17.67;;;6.30;;
7917;SDS011;4004;42.624;23.386;2023-03-14T05:24:25;14.37;;;5.27;;
7917;SDS011;4004;42.624;23.386;2023-03-14T05:26:52;11.93;;;6.23;;
7917;SDS011;4004;42.624;23.386;2023-03-14T05:29:19;10.37;;;6.07;;
7917;SDS011;4004;42.624;23.386;2023-03-14T05:31:47;14.57;;;5.33;;
7917;SDS011;4004;42.624;23.386;2023-03-14T05:34:14;12.17;;;5.87;;
7917;SDS011;4004;42.624;23.386;2023-03-14T05:36:41;11.70;;;5.00;;
7917;SDS011;4004;42.624;23.386;2023-03-14T05:39:07;6.83;;;5.37;;
7917;SDS011;4004;42.624;23.386;2023-03-14T05:41:34;6.73;;;5.40;;
7917;SDS011;4004;42.624;23.386;2023-03-14T05:44:01;15.17;;;11.77;;
7917;SDS011;4004;42.624;23.386;2023-03-14T05:46:27;7.07;;;5.90;;
7917;SDS011;4004;42.624;23.386;2023-03-14T05:48:57;7.43;;;5.50;;
7917;SDS011;4004;42.624;23.386;2023-03-14T05:51:23;10.93;;;5.40;;
7917;SDS011;4004;42.624;23.386;2023-03-14T05:53:51;9.27;;;5.60;;
7917;SDS011;4004;42.624;23.386;2023-03-14T05:56:17;8.07;;;5.77;;
7917;SDS011;4004;42.624;23.386;2023-03-14T05:58:44;10.07;;;5.30;;
7917;SDS011;4004;42.624;23.386;2023-03-14T06:01:11;10.00;;;6.50;;
7917;SDS011;4004;42.624;23.386;2023-03-14T06:03:38;6.73;;;6.03;;
7917;SDS011;4004;42.624;23.386;2023-03-14T06:06:06;6.97;;;5.37;;
7917;SDS011;4004;42.624;23.386;2023-03-14T06:08:33;6.27;;;5.23;;
7917;SDS011;4004;42.624;23.386;2023-03-14T06:11:02;9.13;;;5.57;;
7917;SDS011;4004;42.624;23.386;2023-03-14T06:13:29;8.73;;;5.60;;
7917;SDS011;4004;42.624;23.386;2023-03-14T06:15:56;7.20;;;5.73;;
7917;SDS011;4004;42.624;23.386;2023-03-14T06:18:23;7.63;;;5.37;;
7917;SDS011;4004;42.624;23.386;2023-03-14T06:20:52;11.70;;;6.30;;
7917;SDS011;4004;42.624;23.386;2023-03-14T06:23:21;8.93;;;5.30;;
7917;SDS011;4004;42.624;23.386;2023-03-14T06:25:48;8.00;;;5.30;;
7917;SDS011;4004;42.624;23.386;2023-03-14T06:28:15;8.40;;;5.57;;
7917;SDS011;4004;42.624;23.386;2023-03-14T06:30:42;7.20;;;5.10;;
7917;SDS011;4004;42.624;23.386;2023-03-14T06:33:09;6.27;;;5.27;;
7917;SDS011;4004;42.624;23.386;2023-03-14T06:35:36;7.37;;;5.87;;
7917;SDS011;4004;42.624;23.386;2023-03-14T06:38:02;12.00;;;5.83;;
7917;SDS011;4004;42.624;23.386;2023-03-14T06:40:31;10.33;;;6.23;;
7917;SDS011;4004;42.624;23.386;2023-03-14T06:42:57;10.50;;;5.97;;
7917;SDS011;4004;42.624;23.386;2023-03-14T06:45:24;6.60;;;5.07;;
7917;SDS011;4004;42.624;23.386;2023-03-14T06:47:51;8.40;;;5.90;;
7917;SDS011;4004;42.624;23.386;2023-03-14T06:50:17;8.70;;;6.10;;
7917;SDS011;4004;42.624;23.386;2023-03-14T06:52:44;12.90;;;5.97;;
7917;SDS011;4004;42.624;23.386;2023-03-14T06:55:13;9.07;;;5.53;;
7917;SDS011;4004;42.624;23.386;2023-03-14T06:57:41;5.80;;;4.77;;
7917;SDS011;4004;42.624;23.386;2023-03-14T07:00:09;7.87;;;5.20;;
7917;SDS011;4004;42.624;23.386;2023-03-14T07:02:37;7.57;;;4.87;;
7917;SDS011;4004;42.624;23.386;2023-03-14T07:05:04;10.60;;;5.27;;
7917;SDS011;4004;42.624;23.386;2023-03-14T07:07:31;10.30;;;5.73;;
7917;SDS011;4004;42.624;23.386;2023-03-14T07:09:58;9.60;;;5.90;;
7917;SDS011;4004;42.624;23.386;2023-03-14T07:12:25;7.07;;;6.37;;
7917;SDS011;4004;42.624;23.386;2023-03-14T07:14:53;11.23;;;6.97;;
7917;SDS011;4004;42.624;23.386;2023-03-14T07:17:20;8.87;;;7.50;;
7917;SDS011;4004;42.624;23.386;2023-03-14T07:19:46;14.27;;;8.17;;
7917;SDS011;4004;42.624;23.386;2023-03-14T07:22:13;11.17;;;7.70;;
7917;SDS011;4004;42.624;23.386;2023-03-14T07:24:40;11.80;;;7.80;;
7917;SDS011;4004;42.624;23.386;2023-03-14T07:27:06;10.40;;;8.33;;
7917;SDS011;4004;42.624;23.386;2023-03-14T07:29:33;12.17;;;7.87;;
7917;SDS011;4004;42.624;23.386;2023-03-14T07:32:01;9.33;;;7.70;;
7917;SDS011;4004;42.624;23.386;2023-03-14T07:34:28;10.67;;;7.53;;
7917;SDS011;4004;42.624;23.386;2023-03-14T07:36:55;12.90;;;8.07;;
7917;SDS011;4004;42.624;23.386;2023-03-14T07:39:21;13.17;;;7.43;;
7917;SDS011;4004;42.624;23.386;2023-03-14T07:41:48;9.53;;;7.70;;
7917;SDS011;4004;42.624;23.386;2023-03-14T07:44:15;11.47;;;7.50;;
7917;SDS011;4004;42.624;23.386;2023-03-14T07:46:42;10.80;;;6.93;;
7917;SDS011;4004;42.624;23.386;2023-03-14T07:49:10;11.73;;;8.00;;
7917;SDS011;4004;42.624;23.386;2023-03-14T07:51:36;9.50;;;7.33;;
7917;SDS011;4004;42.624;23.386;2023-03-14T07:54:03;10.00;;;7.43;;
7917;SDS011;4004;42.624;23.386;2023-03-14T07:56:30;9.03;;;7.03;;
7917;SDS011;4004;42.624;23.386;2023-03-14T07:58:57;9.47;;;7.40;;
7917;SDS011;4004;42.624;23.386;2023-03-14T08:01:23;9.40;;;7.43;;
7917;SDS011;4004;42.624;23.386;2023-03-14T08:03:50;16.50;;;7.17;;
7917;SDS011;4004;42.624;23.386;2023-03-14T08:06:18;10.57;;;7.40;;
7917;SDS011;4004;42.624;23.386;2023-03-14T08:08:45;12.03;;;7.63;;
7917;SDS011;4004;42.624;23.386;2023-03-14T08:11:12;12.93;;;8.20;;
7917;SDS011;4004;42.624;23.386;2023-03-14T08:13:38;8.93;;;7.67;;
7917;SDS011;4004;42.624;23.386;2023-03-14T08:16:05;16.43;;;9.60;;
7917;SDS011;4004;42.624;23.386;2023-03-14T08:18:33;15.00;;;10.23;;
7917;SDS011;4004;42.624;23.386;2023-03-14T08:21:00;15.80;;;10.13;;
7917;SDS011;4004;42.624;23.386;2023-03-14T08:23:28;13.60;;;10.17;;
7917;SDS011;4004;42.624;23.386;2023-03-14T08:25:55;18.13;;;10.00;;
7917;SDS011;4004;42.624;23.386;2023-03-14T08:28:21;17.83;;;9.60;;
7917;SDS011;4004;42.624;23.386;2023-03-14T08:30:48;18.80;;;10.43;;
7917;SDS011;4004;42.624;23.386;2023-03-14T08:33:15;11.70;;;9.90;;
7917;SDS011;4004;42.624;23.386;2023-03-14T08:35:41;15.60;;;10.50;;
7917;SDS011;4004;42.624;23.386;2023-03-14T08:38:08;23.70;;;10.50;;
7917;SDS011;4004;42.624;23.386;2023-03-14T08:40:37;13.07;;;10.57;;
7917;SDS011;4004;42.624;23.386;2023-03-14T08:43:03;19.70;;;9.50;;
7917;SDS011;4004;42.624;23.386;2023-03-14T08:45:30;14.40;;;11.10;;
7917;SDS011;4004;42.624;23.386;2023-03-14T08:47:57;16.93;;;11.17;;
7917;SDS011;4004;42.624;23.386;2023-03-14T08:50:24;20.47;;;11.53;;
7917;SDS011;4004;42.624;23.386;2023-03-14T08:52:50;16.03;;;10.57;;
7917;SDS011;4004;42.624;23.386;2023-03-14T08:55:18;14.53;;;9.73;;
7917;SDS011;4004;42.624;23.386;2023-03-14T08:57:46;21.03;;;11.43;;
7917;SDS011;4004;42.624;23.386;2023-03-14T09:00:13;19.93;;;11.47;;
7917;SDS011;4004;42.624;23.386;2023-03-14T09:02:42;13.43;;;9.93;;
7917;SDS011;4004;42.624;23.386;2023-03-14T09:05:09;15.30;;;10.33;;
7917;SDS011;4004;42.624;23.386;2023-03-14T09:07:36;15.37;;;9.50;;
7917;SDS011;4004;42.624;23.386;2023-03-14T09:10:03;12.73;;;9.30;;
7917;SDS011;4004;42.624;23.386;2023-03-14T09:12:31;19.70;;;9.90;;
7917;SDS011;4004;42.624;23.386;2023-03-14T09:14:59;13.63;;;8.90;;
7917;SDS011;4004;42.624;23.386;2023-03-14T09:17:25;11.43;;;9.20;;
7917;SDS011;4004;42.624;23.386;2023-03-14T09:19:52;14.10;;;9.47;;
7917;SDS011;4004;42.624;23.386;2023-03-14T09:22:19;14.50;;;9.17;;
7917;SDS011;4004;42.624;23.386;2023-03-14T09:24:46;10.63;;;7.77;;
7917;SDS011;4004;42.624;23.386;2023-03-14T09:27:13;11.10;;;8.10;;
7917;SDS011;4004;42.624;23.386;2023-03-14T09:29:40;12.53;;;8.10;;
7917;SDS011;4004;42.624;23.386;2023-03-14T09:32:08;11.07;;;7.33;;
7917;SDS011;4004;42.624;23.386;2023-03-14T09:34:34;15.00;;;8.30;;
7917;SDS011;4004;42.624;23.386;2023-03-14T09:37:01;7.33;;;6.13;;
7917;SDS011;4004;42.624;23.386;2023-03-14T09:39:28;8.00;;;6.70;;
7917;SDS011;4004;42.624;23.386;2023-03-14T09:41:55;11.30;;;6.87;;
7917;SDS011;4004;42.624;23.386;2023-03-14T09:44:28;8.83;;;7.07;;
7917;SDS011;4004;42.624;23.386;2023-03-14T09:46:57;9.50;;;6.60;;
7917;SDS011;4004;42.624;23.386;2023-03-14T09:49:30;11.47;;;6.47;;
7917;SDS011;4004;42.624;23.386;2023-03-14T09:52:00;10.50;;;6.50;;
7917;SDS011;4004;42.624;23.386;2023-03-14T09:54:31;8.63;;;6.37;;
7917;SDS011;4004;42.624;23.386;2023-03-14T09:57:02;7.77;;;6.50;;
7917;SDS011;4004;42.624;23.386;2023-03-14T09:59:30;15.67;;;6.73;;
7917;SDS011;4004;42.624;23.386;2023-03-14T10:01:58;11.23;;;6.60;;
7917;SDS011;4004;42.624;23.386;2023-03-14T10:04:27;7.50;;;6.10;;
7917;SDS011;4004;42.624;23.386;2023-03-14T10:06:57;9.57;;;6.53;;
7917;SDS011;4004;42.624;23.386;2023-03-14T10:09:24;7.63;;;5.93;;
7917;SDS011;4004;42.624;23.386;2023-03-14T10:11:52;10.43;;;6.57;;
7917;SDS011;4004;42.624;23.386;2023-03-14T10:14:31;6.70;;;5.90;;
7917;SDS011;4004;42.624;23.386;2023-03-14T10:17:09;7.23;;;6.20;;
7917;SDS011;4004;42.624;23.386;2023-03-14T10:19:39;12.23;;;6.47;;
7917;SDS011;4004;42.624;23.386;2023-03-14T10:22:18;10.07;;;6.23;;
7917;SDS011;4004;42.624;23.386;2023-03-14T10:24:46;10.63;;;7.07;;
7917;SDS011;4004;42.624;23.386;2023-03-14T10:27:18;8.30;;;6.23;;
7917;SDS011;4004;42.624;23.386;2023-03-14T10:29:51;11.23;;;6.17;;
7917;SDS011;4004;42.624;23.386;2023-03-14T10:32:19;7.37;;;5.53;;
7917;SDS011;4004;42.624;23.386;2023-03-14T10:35:03;7.83;;;5.30;;
7917;SDS011;4004;42.624;23.386;2023-03-14T10:37:34;6.10;;;4.40;;
7917;SDS011;4004;42.624;23.386;2023-03-14T10:40:01;5.03;;;4.40;;
7917;SDS011;4004;42.624;23.386;2023-03-14T10:42:30;6.67;;;4.27;;
7917;SDS011;4004;42.624;23.386;2023-03-14T10:45:00;5.17;;;4.03;;
7917;SDS011;4004;42.624;23.386;2023-03-14T10:47:30;10.17;;;4.87;;
7917;SDS011;4004;42.624;23.386;2023-03-14T10:50:21;5.67;;;4.17;;
7917;SDS011;4004;42.624;23.386;2023-03-14T10:52:52;6.10;;;3.33;;
7917;SDS011;4004;42.624;23.386;2023-03-14T10:55:20;11.77;;;4.70;;
7917;SDS011;4004;42.624;23.386;2023-03-14T10:57:49;7.97;;;4.00;;
7917;SDS011;4004;42.624;23.386;2023-03-14T11:00:17;7.20;;;4.23;;
7917;SDS011;4004;42.624;23.386;2023-03-14T11:02:49;14.10;;;4.07;;
7917;SDS011;4004;42.624;23.386;2023-03-14T11:05:33;9.03;;;3.70;;
7917;SDS011;4004;42.624;23.386;2023-03-14T11:08:07;7.07;;;3.33;;
7917;SDS011;4004;42.624;23.386;2023-03-14T11:10:38;3.30;;;3.00;;
7917;SDS011;4004;42.624;23.386;2023-03-14T11:13:12;6.87;;;3.33;;
7917;SDS011;4004;42.624;23.386;2023-03-14T11:15:45;3.97;;;3.57;;
7917;SDS011;4004;42.624;23.386;2023-03-14T11:18:23;6.43;;;3.63;;
7917;SDS011;4004;42.624;23.386;2023-03-14T11:21:12;3.47;;;3.17;;
7917;SDS011;4004;42.624;23.386;2023-03-14T11:23:45;8.00;;;3.80;;
7917;SDS011;4004;42.624;23.386;2023-03-14T11:26:21;5.97;;;3.63;;
7917;SDS011;4004;42.624;23.386;2023-03-14T11:28:56;6.60;;;3.87;;
7917;SDS011;4004;42.624;23.386;2023-03-14T11:31:25;4.10;;;3.67;;
7917;SDS011;4004;42.624;23.386;2023-03-14T11:33:54;3.70;;;3.03;;
7917;SDS011;4004;42.624;23.386;2023-03-14T11:36:29;5.20;;;3.40;;
7917;SDS011;4004;42.624;23.386;2023-03-14T11:38:59;6.43;;;3.10;;
7917;SDS011;4004;42.624;23.386;2023-03-14T11:41:27;4.00;;;3.00;;
7917;SDS011;4004;42.624;23.386;2023-03-14T11:43:59;18.63;;;4.87;;
7917;SDS011;4004;42.624;23.386;2023-03-14T11:46:29;10.07;;;3.80;;
7917;SDS011;4004;42.624;23.386;2023-03-14T11:49:01;7.23;;;3.20;;
7917;SDS011;4004;42.624;23.386;2023-03-14T11:51:35;3.87;;;3.10;;
7917;SDS011;4004;42.624;23.386;2023-03-14T11:54:07;7.30;;;2.87;;
7917;SDS011;4004;42.624;23.386;2023-03-14T11:56:43;4.70;;;3.10;;
7917;SDS011;4004;42.624;23.386;2023-03-14T11:59:15;5.00;;;3.00;;
7917;SDS011;4004;42.624;23.386;2023-03-14T12:01:53;6.13;;;3.30;;
7917;SDS011;4004;42.624;23.386;2023-03-14T12:04:31;6.47;;;3.00;;
7917;SDS011;4004;42.624;23.386;2023-03-14T12:07:14;8.47;;;4.00;;
7917;SDS011;4004;42.624;23.386;2023-03-14T12:09:45;5.53;;;3.63;;
7917;SDS011;4004;42.624;23.386;2023-03-14T12:12:14;3.97;;;2.80;;
7917;SDS011;4004;42.624;23.386;2023-03-14T12:14:45;6.87;;;3.00;;
7917;SDS011;4004;42.624;23.386;2023-03-14T12:17:18;8.53;;;2.67;;
7917;SDS011;4004;42.624;23.386;2023-03-14T12:19:47;6.90;;;2.97;;
7917;SDS011;4004;42.624;23.386;2023-03-14T12:22:27;6.27;;;2.83;;
7917;SDS011;4004;42.624;23.386;2023-03-14T12:24:57;4.33;;;3.30;;
7917;SDS011;4004;42.624;23.386;2023-03-14T12:30:31;3.93;;;2.30;;
7917;SDS011;4004;42.624;23.386;2023-03-14T12:33:26;3.53;;;2.30;;
7917;SDS011;4004;42.624;23.386;2023-03-14T12:35:57;4.13;;;2.53;;
7917;SDS011;4004;42.624;23.386;2023-03-14T12:38:31;2.83;;;2.30;;
7917;SDS011;4004;42.624;23.386;2023-03-14T12:41:12;4.23;;;2.80;;
7917;SDS011;4004;42.624;23.386;2023-03-14T12:43:41;6.67;;;2.33;;
7917;SDS011;4004;42.624;23.386;2023-03-14T12:46:15;5.77;;;2.40;;
7917;SDS011;4004;42.624;23.386;2023-03-14T12:48:47;13.77;;;3.70;;
7917;SDS011;4004;42.624;23.386;2023-03-14T12:51:17;8.10;;;3.10;;
7917;SDS011;4004;42.624;23.386;2023-03-14T12:53:53;3.27;;;2.00;;
7917;SDS011;4004;42.624;23.386;2023-03-14T12:56:35;4.53;;;2.03;;
7917;SDS011;4004;42.624;23.386;2023-03-14T12:59:19;2.93;;;2.20;;
7917;SDS011;4004;42.624;23.386;2023-03-14T13:01:59;3.77;;;2.30;;
7917;SDS011;4004;42.624;23.386;2023-03-14T13:04:29;4.03;;;2.27;;
7917;SDS011;4004;42.624;23.386;2023-03-14T13:06:59;3.87;;;2.47;;
7917;SDS011;4004;42.624;23.386;2023-03-14T13:12:36;2.67;;;2.20;;
7917;SDS011;4004;42.624;23.386;2023-03-14T13:15:16;2.67;;;2.00;;
7917;SDS011;4004;42.624;23.386;2023-03-14T13:17:46;1.93;;;1.80;;
7917;SDS011;4004;42.624;23.386;2023-03-14T13:20:16;7.00;;;2.43;;
7917;SDS011;4004;42.624;23.386;2023-03-14T13:22:48;2.20;;;2.00;;
7917;SDS011;4004;42.624;23.386;2023-03-14T13:25:17;4.57;;;2.17;;
7917;SDS011;4004;42.624;23.386;2023-03-14T13:27:46;1.97;;;1.87;;
7917;SDS011;4004;42.624;23.386;2023-03-14T13:30:18;3.43;;;2.30;;
7917;SDS011;4004;42.624;23.386;2023-03-14T13:32:49;3.07;;;2.20;;
7917;SDS011;4004;42.624;23.386;2023-03-14T13:35:17;4.90;;;2.17;;
7917;SDS011;4004;42.624;23.386;2023-03-14T13:37:45;4.03;;;2.13;;
7917;SDS011;4004;42.624;23.386;2023-03-14T13:40:23;2.17;;;1.90;;
7917;SDS011;4004;42.624;23.386;2023-03-14T13:43:06;2.70;;;2.30;;
7917;SDS011;4004;42.624;23.386;2023-03-14T13:45:48;5.53;;;1.90;;
7917;SDS011;4004;42.624;23.386;2023-03-14T13:48:16;3.37;;;2.20;;
7917;SDS011;4004;42.624;23.386;2023-03-14T13:50:51;6.93;;;2.50;;
7917;SDS011;4004;42.624;23.386;2023-03-14T13:53:20;3.23;;;2.30;;
7917;SDS011;4004;42.624;23.386;2023-03-14T13:55:50;2.37;;;1.93;;
7917;SDS011;4004;42.624;23.386;2023-03-14T13:58:21;5.50;;;2.40;;
7917;SDS011;4004;42.624;23.386;2023-03-14T14:00:54;2.83;;;2.00;;
7917;SDS011;4004;42.624;23.386;2023-03-14T14:03:23;3.20;;;2.37;;
7917;SDS011;4004;42.624;23.386;2023-03-14T14:05:50;5.20;;;2.20;;
7917;SDS011;4004;42.624;23.386;2023-03-14T14:08:17;12.13;;;2.50;;
7917;SDS011;4004;42.624;23.386;2023-03-14T14:10:44;3.13;;;2.43;;
7917;SDS011;4004;42.624;23.386;2023-03-14T14:13:16;4.87;;;2.47;;
7917;SDS011;4004;42.624;23.386;2023-03-14T14:15:46;6.47;;;2.40;;
7917;SDS011;4004;42.624;23.386;2023-03-14T14:18:18;13.93;;;2.80;;
7917;SDS011;4004;42.624;23.386;2023-03-14T14:20:50;5.90;;;2.37;;
7917;SDS011;4004;42.624;23.386;2023-03-14T14:23:17;7.77;;;2.30;;
7917;SDS011;4004;42.624;23.386;2023-03-14T14:25:50;2.80;;;1.87;;
7917;SDS011;4004;42.624;23.386;2023-03-14T14:28:22;2.37;;;1.93;;
7917;SDS011;4004;42.624;23.386;2023-03-14T14:31:05;3.10;;;2.17;;
7917;SDS011;4004;42.624;23.386;2023-03-14T14:33:45;4.07;;;2.50;;
7917;SDS011;4004;42.624;23.386;2023-03-14T14:36:17;2.87;;;2.00;;
7917;SDS011;4004;42.624;23.386;2023-03-14T14:38:49;2.47;;;2.00;;
7917;SDS011;4004;42.624;23.386;2023-03-14T14:41:17;2.27;;;2.00;;
7917;SDS011;4004;42.624;23.386;2023-03-14T14:43:45;2.03;;;1.80;;
7917;SDS011;4004;42.624;23.386;2023-03-14T14:46:13;2.30;;;1.90;;
7917;SDS011;4004;42.624;23.386;2023-03-14T14:48:44;2.17;;;1.87;;
7917;SDS011;4004;42.624;23.386;2023-03-14T14:51:21;2.17;;;1.97;;
7917;SDS011;4004;42.624;23.386;2023-03-14T14:53:49;2.53;;;1.90;;
7917;SDS011;4004;42.624;23.386;2023-03-14T14:56:26;2.20;;;2.00;;
7917;SDS011;4004;42.624;23.386;2023-03-14T14:58:57;2.70;;;2.10;;
7917;SDS011;4004;42.624;23.386;2023-03-14T15:01:25;4.53;;;2.00;;
7917;SDS011;4004;42.624;23.386;2023-03-14T15:03:56;3.67;;;2.20;;
7917;SDS011;4004;42.624;23.386;2023-03-14T15:06:24;2.10;;;1.90;;
7917;SDS011;4004;42.624;23.386;2023-03-14T15:08:54;2.47;;;1.90;;
7917;SDS011;4004;42.624;23.386;2023-03-14T15:11:21;4.00;;;1.70;;
7917;SDS011;4004;42.624;23.386;2023-03-14T15:13:49;3.03;;;2.10;;